Itabirito, Brazil
Current Conditions -  °F | °C
As of 2:00 PM on Thursday 30 Oct 2014 (Local Time) from SBBH Reporting Station
Overcast Overcast  
Wind Chill: 70°   Ceiling: 9000
Heat Index: 70°   Visibility: 6mi
Dew Point: 66°   Wind: 6mph
Humidity: 88%   Direction: 250°WSW
Pressure: 30"   Gusts: NA
Location:  20.25°S, 43.8°W
Report Text: SBBH 301600Z 25005KT 9999 SCT029 OVC090 21/19 Q1016
Loading
Personal Weather Stations






























Interactive Weather Map
Tropical Storm Tracking
New forecast layout! Learn more

10-Day Weather Forecast

Advertisements
Track Severe Weather on mobile